Time;durP1;ratioP1;P1;durP2;ratioP2;P2;SDS_P1;SDS_P2;PMS_P1;PMS_P2;Temp;Humidity;BMP_temperature;BMP_pressure;BME280_temperature;BME280_humidity;BME280_pressure;Samples;Min_cycle;Max_cycle;Signal;HPM_P1;HPM_P2
2022/02/17 00:01:14;;;;;;;0.95;0.10;;;23.30;48.70;;;;;;5064456;28;20056;-55
2022/02/17 00:03:41;;;;;;;1.00;0.10;;;23.20;48.80;;;;;;5064946;28;20056;-50
2022/02/17 00:06:08;;;;;;;0.63;0.50;;;23.20;49.00;;;;;;5066367;28;20051;-47
2022/02/17 00:08:35;;;;;;;0.65;0.10;;;23.20;49.10;;;;;;5064382;28;20144;-54
2022/02/17 00:11:03;;;;;;;2.15;0.10;;;23.10;49.20;;;;;;5064458;28;20045;-49
2022/02/17 00:13:31;;;;;;;0.95;0.10;;;23.10;49.30;;;;;;5064407;28;20431;-50
2022/02/17 00:15:58;;;;;;;0.43;0.30;;;23.00;49.40;;;;;;5064196;28;20723;-54
2022/02/17 00:18:25;;;;;;;1.23;0.03;;;22.90;49.40;;;;;;5047777;28;20098;-50
2022/02/17 00:20:55;;;;;;;1.88;0.10;;;22.90;49.60;;;;;;5065510;28;20285;-48
2022/02/17 00:23:23;;;;;;;1.13;0.20;;;22.90;49.70;;;;;;5064291;28;20040;-49
2022/02/17 00:25:50;;;;;;;0.10;0.10;;;22.80;49.90;;;;;;5064441;28;20044;-51
2022/02/17 00:28:18;;;;;;;0.70;0.00;;;22.80;50.10;;;;;;5064400;28;20416;-50
2022/02/17 00:30:46;;;;;;;0.63;0.10;;;22.70;50.20;;;;;;5058798;28;20062;-49
2022/02/17 00:33:13;;;;;;;0.40;0.00;;;22.70;50.40;;;;;;5065355;28;20044;-47
2022/02/17 00:35:40;;;;;;;0.57;0.00;;;22.70;50.50;;;;;;5063741;28;20863;-47
2022/02/17 00:38:07;;;;;;;1.83;0.25;;;22.60;50.60;;;;;;5046127;28;20060;-48
2022/02/17 00:40:34;;;;;;;0.13;0.00;;;22.60;50.70;;;;;;5064242;28;20033;-51
2022/02/17 00:43:20;;;;;;;2.42;0.10;;;22.60;50.80;;;;;;5064632;28;20273;-49
2022/02/17 00:45:49;;;;;;;0.28;0.08;;;22.50;50.90;;;;;;5063896;28;20818;-48
2022/02/17 00:48:20;;;;;;;1.55;0.00;;;22.50;51.10;;;;;;5048136;28;20044;-46
2022/02/17 00:50:47;;;;;;;0.00;0.00;;;22.50;51.20;;;;;;5061908;28;20059;-46
2022/02/17 00:53:14;;;;;;;0.10;0.00;;;22.40;51.20;;;;;;5064228;28;20052;-48
2022/02/17 00:55:41;;;;;;;0.45;0.10;;;22.40;51.30;;;;;;5046039;28;20472;-48
2022/02/17 00:58:08;;;;;;;0.47;0.00;;;22.40;51.50;;;;;;5046380;28;20072;-51
2022/02/17 01:00:36;;;;;;;3.92;0.00;;;22.30;51.50;;;;;;5047103;28;20053;-49
2022/02/17 01:03:09;;;;;;;0.20;0.20;;;22.30;51.60;;;;;;5051769;28;20975;-50
2022/02/17 01:05:36;;;;;;;0.13;0.13;;;22.30;51.70;;;;;;5067926;28;20418;-47
2022/02/17 01:08:04;;;;;;;0.10;0.00;;;22.30;51.80;;;;;;5049831;28;20045;-51
2022/02/17 01:10:31;;;;;;;0.20;0.00;;;22.30;51.90;;;;;;5067466;28;20049;-47
2022/02/17 01:12:59;;;;;;;4.78;0.00;;;22.30;52.10;;;;;;5068008;28;20098;-48
2022/02/17 01:15:30;;;;;;;0.10;0.00;;;22.20;52.20;;;;;;5067933;28;20429;-51
2022/02/17 01:17:57;;;;;;;0.10;0.00;;;22.20;52.30;;;;;;5068419;28;20044;-49
2022/02/17 01:20:28;;;;;;;1.55;0.00;;;22.20;52.40;;;;;;5049487;28;20102;-50
2022/02/17 01:22:58;;;;;;;0.00;0.00;;;22.20;52.50;;;;;;5044297;28;20067;-48
2022/02/17 01:25:25;;;;;;;0.60;0.00;;;22.20;52.60;;;;;;5050026;28;20108;-49
2022/02/17 01:27:55;;;;;;;1.15;0.00;;;22.20;52.70;;;;;;5049363;28;20041;-51
2022/02/17 01:30:22;;;;;;;2.25;0.00;;;22.20;52.80;;;;;;5046431;28;20048;-48
2022/02/17 01:33:08;;;;;;;0.63;0.00;;;22.10;52.90;;;;;;5052160;28;20059;-47
2022/02/17 01:36:06;;;;;;;0.05;0.00;;;22.10;52.90;;;;;;5053115;28;20122;-46
2022/02/17 01:38:52;;;;;;;0.08;0.00;;;22.10;53.10;;;;;;5053039;28;20866;-52
2022/02/17 01:41:38;;;;;;;0.45;0.00;;;22.00;53.10;;;;;;5051994;28;20051;-48
2022/02/17 01:44:32;;;;;;;0.35;0.00;;;22.00;53.20;;;;;;5051804;28;20047;-46
2022/02/17 01:47:23;;;;;;;0.00;0.00;;;22.00;53.40;;;;;;5051577;28;20056;-47
2022/02/17 01:50:10;;;;;;;0.05;0.00;;;22.00;53.50;;;;;;5051844;28;20086;-50
2022/02/17 01:52:39;;;;;;;0.00;0.00;;;21.90;53.60;;;;;;5045429;28;20036;-52
2022/02/17 01:55:09;;;;;;;0.15;0.00;;;21.90;53.80;;;;;;5048689;28;20040;-49
2022/02/17 01:57:39;;;;;;;0.20;0.08;;;22.00;54.00;;;;;;5048939;28;20122;-47
2022/02/17 02:00:11;;;;;;;0.17;0.00;;;22.00;54.10;;;;;;5065088;28;20490;-49
2022/02/17 02:02:46;;;;;;;0.00;0.00;;;21.90;54.10;;;;;;5066608;28;20127;-47
2022/02/17 02:05:16;;;;;;;0.00;0.00;;;21.90;54.10;;;;;;5048852;28;20688;-46
2022/02/17 02:07:47;;;;;;;0.00;0.00;;;21.90;54.10;;;;;;5048346;28;20500;-47
2022/02/17 02:10:27;;;;;;;0.22;0.00;;;21.90;54.10;;;;;;5048964;28;20044;-47
2022/02/17 02:12:54;;;;;;;0.00;0.00;;;21.90;54.10;;;;;;5063604;28;20037;-48
2022/02/17 02:15:44;;;;;;;0.20;0.00;;;21.90;54.10;;;;;;5049036;28;20040;-46
2022/02/17 02:18:14;;;;;;;0.08;0.00;;;21.90;54.10;;;;;;5065864;28;20048;-46
2022/02/17 02:20:47;;;;;;;0.05;0.00;;;21.80;54.00;;;;;;5048643;28;20083;-45
2022/02/17 02:23:14;;;;;;;0.10;0.00;;;21.80;54.10;;;;;;5048499;28;20048;-48
2022/02/17 02:25:45;;;;;;;4.47;0.00;;;21.80;54.00;;;;;;5065905;28;20040;-49
2022/02/17 02:28:16;;;;;;;0.25;0.25;;;21.80;54.60;;;;;;5065698;28;20044;-48
2022/02/17 02:30:48;;;;;;;0.25;0.00;;;21.80;54.00;;;;;;5048026;28;20067;-46
2022/02/17 02:33:15;;;;;;;0.35;0.00;;;21.80;54.00;;;;;;5068050;28;20070;-47
2022/02/17 02:35:43;;;;;;;1.33;0.00;;;21.80;54.10;;;;;;5065400;28;20044;-48
2022/02/17 02:38:12;;;;;;;3.40;0.17;;;21.80;54.00;;;;;;5048226;28;20516;-48
2022/02/17 02:40:39;;;;;;;0.28;0.28;;;21.80;54.00;;;;;;5047715;28;20307;-48
2022/02/17 02:43:07;;;;;;;2.83;0.00;;;21.80;54.00;;;;;;5066016;28;20055;-48
2022/02/17 02:45:35;;;;;;;0.57;0.43;;;21.80;54.00;;;;;;5048258;28;20071;-48
2022/02/17 02:48:10;;;;;;;1.05;0.57;;;21.80;54.00;;;;;;5049237;28;20053;-46
2022/02/17 02:50:38;;;;;;;0.75;0.40;;;21.70;53.90;;;;;;5047267;28;20044;-45
2022/02/17 02:53:26;;;;;;;1.02;0.00;;;21.70;53.90;;;;;;5046944;28;20137;-46
2022/02/17 02:55:55;;;;;;;2.10;0.47;;;21.70;53.90;;;;;;5041129;28;20082;-47
2022/02/17 02:58:23;;;;;;;2.83;0.10;;;21.70;53.90;;;;;;5065750;28;20044;-52
2022/02/17 03:00:52;;;;;;;0.20;0.00;;;21.70;53.90;;;;;;5047794;28;20066;-51
2022/02/17 03:03:19;;;;;;;1.85;0.17;;;21.60;53.80;;;;;;5049540;28;20436;-51
2022/02/17 03:05:46;;;;;;;3.92;0.10;;;21.70;53.80;;;;;;5065315;28;20497;-51
2022/02/17 03:08:17;;;;;;;0.73;0.10;;;21.60;53.70;;;;;;5047595;28;20137;-48
2022/02/17 03:10:46;;;;;;;3.50;0.57;;;21.60;53.70;;;;;;5047263;28;20512;-52
2022/02/17 03:13:35;;;;;;;0.13;0.10;;;21.60;53.70;;;;;;5046416;28;20107;-48
2022/02/17 03:16:03;;;;;;;1.10;0.20;;;21.60;53.60;;;;;;5050480;28;20048;-50
2022/02/17 03:18:31;;;;;;;3.15;1.65;;;21.60;53.60;;;;;;5048165;28;20045;-48
2022/02/17 03:20:59;;;;;;;1.70;0.60;;;21.60;53.60;;;;;;5064367;28;20072;-49
2022/02/17 03:23:26;;;;;;;0.57;0.10;;;21.50;53.50;;;;;;5046545;28;20513;-49
2022/02/17 03:26:07;;;;;;;1.23;0.03;;;21.50;53.50;;;;;;5047204;28;20076;-49
2022/02/17 03:28:35;;;;;;;1.80;0.60;;;21.50;54.00;;;;;;5047264;28;20044;-53
2022/02/17 03:31:04;;;;;;;0.75;0.10;;;21.50;53.40;;;;;;5047455;28;20506;-52
2022/02/17 03:33:34;;;;;;;2.65;0.20;;;21.50;53.40;;;;;;5047565;28;20040;-46
2022/02/17 03:36:04;;;;;;;2.00;0.10;;;21.50;53.30;;;;;;5066480;28;20493;-51
2022/02/17 03:38:31;;;;;;;0.55;0.20;;;21.40;53.20;;;;;;5046997;28;20569;-50
2022/02/17 03:40:59;;;;;;;5.03;0.20;;;21.40;53.20;;;;;;5046676;28;20543;-51
2022/02/17 03:43:34;;;;;;;0.95;0.10;;;21.50;53.30;;;;;;5044373;28;20045;-54
2022/02/17 03:46:03;;;;;;;3.83;0.30;;;21.40;53.10;;;;;;5040623;28;20076;-50
2022/02/17 03:48:31;;;;;;;0.82;0.10;;;21.40;53.10;;;;;;5047491;28;20508;-50
2022/02/17 03:51:03;;;;;;;3.10;0.32;;;21.40;53.10;;;;;;5062144;28;20052;-50
2022/02/17 03:53:31;;;;;;;6.18;0.20;;;21.40;53.10;;;;;;5046528;28;20045;-48
2022/02/17 03:55:59;;;;;;;1.90;0.77;;;21.40;53.10;;;;;;5046753;28;20048;-47
2022/02/17 03:59:03;;;;;;;3.22;0.63;;;21.40;53.10;;;;;;5064533;28;20040;-49
2022/02/17 04:01:36;;;;;;;1.95;0.20;;;21.30;53.10;;;;;;5046254;28;20045;-46
2022/02/17 04:04:05;;;;;;;1.83;0.80;;;21.40;53.10;;;;;;5047254;28;20032;-47
2022/02/17 04:06:33;;;;;;;4.63;0.55;;;21.40;53.10;;;;;;5047403;28;20040;-49
2022/02/17 04:09:01;;;;;;;5.07;0.10;;;21.30;53.00;;;;;;5064161;28;20044;-48
2022/02/17 04:11:29;;;;;;;3.10;0.65;;;21.40;53.10;;;;;;5046652;28;20040;-49
2022/02/17 04:13:58;;;;;;;1.10;0.15;;;21.30;53.00;;;;;;5064610;28;20417;-49
2022/02/17 04:16:35;;;;;;;3.80;0.38;;;21.30;53.00;;;;;;5041482;28;20045;-47
2022/02/17 04:19:20;;;;;;;6.03;0.65;;;21.30;53.00;;;;;;5064774;28;20036;-46
2022/02/17 04:22:17;;;;;;;5.82;0.45;;;21.40;53.60;;;;;;4996393;28;20561;-50
2022/02/17 04:24:49;;;;;;;4.88;0.75;;;21.30;52.90;;;;;;4985809;28;20047;-48
2022/02/17 04:27:21;;;;;;;3.60;0.35;;;21.30;52.90;;;;;;5003735;28;20050;-47
2022/02/17 04:30:06;;;;;;;3.38;0.38;;;21.30;52.90;;;;;;4983950;28;20108;-50
2022/02/17 04:32:34;;;;;;;3.97;0.20;;;21.30;52.80;;;;;;4996357;28;20042;-47
2022/02/17 04:35:01;;;;;;;6.05;0.20;;;21.30;52.80;;;;;;4987304;28;20082;-47
2022/02/17 04:37:28;;;;;;;4.75;0.30;;;21.20;52.70;;;;;;4989641;28;20038;-45
2022/02/17 04:39:55;;;;;;;2.15;0.13;;;21.30;52.80;;;;;;4974620;28;20587;-49
2022/02/17 04:42:23;;;;;;;7.68;0.77;;;21.30;52.70;;;;;;4988721;28;20563;-46
2022/02/17 04:44:57;;;;;;;3.95;0.17;;;21.30;52.70;;;;;;4990560;28;20540;-47
2022/02/17 04:47:46;;;;;;;5.32;0.40;;;21.20;52.60;;;;;;5006062;28;20074;-45
2022/02/17 04:50:33;;;;;;;4.43;0.22;;;21.20;52.70;;;;;;4989337;28;20057;-48
2022/02/17 04:53:19;;;;;;;3.75;0.32;;;21.20;52.60;;;;;;5005410;28;20137;-48
2022/02/17 04:55:54;;;;;;;4.30;0.45;;;21.20;52.60;;;;;;4989377;28;20038;-45
2022/02/17 04:58:22;;;;;;;4.22;0.28;;;21.20;52.60;;;;;;5007506;28;20040;-45
2022/02/17 05:00:51;;;;;;;4.03;1.65;;;21.20;52.60;;;;;;5049855;28;20076;-50
2022/02/17 05:03:49;;;;;;;4.95;0.63;;;21.20;52.60;;;;;;5065324;28;20036;-47
2022/02/17 05:06:19;;;;;;;4.72;0.47;;;21.10;52.50;;;;;;5050865;28;20052;-51
2022/02/17 05:08:50;;;;;;;6.20;0.32;;;21.10;52.40;;;;;;5049882;28;20044;-48
2022/02/17 05:11:20;;;;;;;4.30;0.77;;;21.10;52.40;;;;;;5049994;28;20051;-47
2022/02/17 05:13:48;;;;;;;4.68;1.05;;;21.10;52.30;;;;;;5049208;28;20036;-51
2022/02/17 05:16:17;;;;;;;2.47;0.57;;;21.10;52.30;;;;;;5049831;28;20830;-53
2022/02/17 05:18:47;;;;;;;7.80;0.73;;;21.10;52.30;;;;;;5049647;28;24373;-48
2022/02/17 05:21:18;;;;;;;5.15;1.88;;;21.10;52.30;;;;;;5051244;28;20045;-50
2022/02/17 05:24:05;;;;;;;5.35;0.50;;;21.10;52.20;;;;;;5068285;28;20045;-49
2022/02/17 05:26:50;;;;;;;3.55;0.50;;;21.10;52.20;;;;;;5067321;28;20511;-51
2022/02/17 05:29:26;;;;;;;4.43;0.75;;;21.10;52.20;;;;;;5049312;28;20608;-49
2022/02/17 05:32:21;;;;;;;6.10;1.63;;;21.10;52.20;;;;;;5049526;28;20118;-52
2022/02/17 05:35:09;;;;;;;4.07;0.70;;;21.00;52.10;;;;;;5066443;28;20060;-49
2022/02/17 05:37:47;;;;;;;6.72;0.50;;;21.00;52.10;;;;;;5066180;28;20103;-50
2022/02/17 05:40:24;;;;;;;7.78;0.50;;;21.10;52.10;;;;;;5043617;28;20036;-53
2022/02/17 05:42:51;;;;;;;7.28;1.02;;;21.00;52.00;;;;;;5066946;28;20051;-49
2022/02/17 05:45:37;;;;;;;5.20;0.90;;;21.00;52.00;;;;;;5065167;28;20102;-49
2022/02/17 05:48:05;;;;;;;5.95;1.17;;;21.00;52.00;;;;;;5066570;28;20053;-49
2022/02/17 05:50:33;;;;;;;4.55;1.40;;;21.00;52.00;;;;;;5058990;28;20534;-50
2022/02/17 05:53:24;;;;;;;7.85;0.50;;;21.00;52.00;;;;;;5063167;28;20126;-48
2022/02/17 05:56:10;;;;;;;7.00;1.02;;;21.00;52.10;;;;;;5064799;28;20051;-48
2022/02/17 05:58:37;;;;;;;6.40;0.60;;;21.00;52.10;;;;;;5066528;28;20090;-48
2022/02/17 06:01:04;;;;;;;6.18;0.57;;;21.00;52.10;;;;;;5062906;28;20055;-52
2022/02/17 06:03:32;;;;;;;5.18;1.25;;;21.00;52.10;;;;;;5063868;28;20056;-51
2022/02/17 06:05:59;;;;;;;6.15;0.70;;;21.00;52.20;;;;;;5059006;28;20041;-51
2022/02/17 06:08:47;;;;;;;7.40;1.52;;;21.00;52.20;;;;;;5063270;28;20094;-47
2022/02/17 06:11:15;;;;;;;13.13;1.20;;;21.00;52.20;;;;;;5062281;28;20151;-49
2022/02/17 06:13:43;;;;;;;5.97;0.63;;;20.90;52.10;;;;;;5062317;28;20041;-46
2022/02/17 06:16:10;;;;;;;8.68;0.40;;;20.90;52.10;;;;;;5063390;28;20115;-47
2022/02/17 06:18:56;;;;;;;6.93;1.20;;;21.00;52.10;;;;;;5063710;28;20055;-51
2022/02/17 06:21:42;;;;;;;6.03;1.05;;;20.90;52.10;;;;;;5058990;28;20158;-46
2022/02/17 06:24:10;;;;;;;6.85;0.35;;;20.90;52.10;;;;;;5061786;28;20039;-46
2022/02/17 06:26:37;;;;;;;5.40;1.17;;;20.90;52.00;;;;;;5059385;28;20109;-53
2022/02/17 06:29:04;;;;;;;8.45;1.33;;;20.90;52.60;;;;;;5060659;28;20059;-46
2022/02/17 06:31:32;;;;;;;6.75;1.20;;;20.90;52.00;;;;;;5061431;28;20040;-48
2022/02/17 06:33:59;;;;;;;6.15;0.73;;;20.90;52.00;;;;;;5062661;28;20036;-48
2022/02/17 06:36:26;;;;;;;10.57;0.70;;;20.90;52.00;;;;;;5062494;28;20052;-46
2022/02/17 06:38:53;;;;;;;6.22;1.00;;;20.90;52.00;;;;;;5060965;28;20036;-49
2022/02/17 06:41:23;;;;;;;8.38;0.68;;;20.90;52.00;;;;;;5062725;28;20064;-46
2022/02/17 06:43:50;;;;;;;8.82;1.38;;;20.90;52.50;;;;;;5063797;28;20143;-47
2022/02/17 06:46:36;;;;;;;7.68;0.55;;;20.90;51.90;;;;;;5044848;28;20063;-46
2022/02/17 06:49:04;;;;;;;6.68;1.08;;;20.90;51.90;;;;;;5059178;28;20332;-48
2022/02/17 06:51:31;;;;;;;11.75;1.23;;;20.80;51.80;;;;;;5063026;28;20032;-47
2022/02/17 06:53:58;;;;;;;7.25;1.65;;;20.80;51.80;;;;;;5067180;28;20040;-50
2022/02/17 06:56:27;;;;;;;8.18;1.55;;;20.80;51.90;;;;;;5044384;28;20033;-48
2022/02/17 06:58:54;;;;;;;15.00;1.65;;;20.80;52.00;;;;;;5069295;28;20468;-51
2022/02/17 07:01:23;;;;;;;4.07;0.55;;;20.80;52.10;;;;;;5071454;28;20052;-48
2022/02/17 07:03:51;;;;;;;6.18;0.77;;;20.80;52.20;;;;;;5069863;28;20045;-48
2022/02/17 07:06:19;;;;;;;9.00;1.38;;;20.80;52.20;;;;;;5068824;28;20149;-49
2022/02/17 07:08:46;;;;;;;18.10;1.58;;;20.80;52.20;;;;;;5063558;28;20056;-45
2022/02/17 07:11:13;;;;;;;10.27;1.65;;;20.80;52.30;;;;;;5066711;28;20040;-46
2022/02/17 07:13:41;;;;;;;8.73;0.90;;;20.80;52.40;;;;;;5070257;28;20047;-46
2022/02/17 07:16:08;;;;;;;9.90;1.42;;;20.80;52.50;;;;;;5066708;28;20036;-51
2022/02/17 07:18:36;;;;;;;11.57;2.05;;;20.80;52.50;;;;;;5074027;28;20595;-51
2022/02/17 07:21:05;;;;;;;7.72;2.42;;;20.80;52.40;;;;;;5063830;28;20039;-55
2022/02/17 07:23:32;;;;;;;10.63;0.98;;;20.80;52.50;;;;;;5076911;28;20047;-53
2022/02/17 07:25:59;;;;;;;11.65;2.70;;;20.90;52.50;;;;;;5074642;28;20032;-52
2022/02/17 07:28:27;;;;;;;22.35;1.98;;;20.90;52.50;;;;;;5072856;28;20133;-55
2022/02/17 07:30:55;;;;;;;16.25;1.27;;;20.90;52.50;;;;;;5046594;28;20501;-56
2022/02/17 07:33:25;;;;;;;15.80;2.33;;;21.00;52.50;;;;;;5067378;28;20044;-59
2022/02/17 07:35:52;;;;;;;15.18;2.10;;;21.00;52.60;;;;;;5065098;28;20040;-61
2022/02/17 07:38:19;;;;;;;12.75;2.00;;;21.00;52.70;;;;;;5064716;28;20048;-58
2022/02/17 07:40:46;;;;;;;8.18;1.65;;;21.00;52.70;;;;;;5063493;28;20048;-61
2022/02/17 07:43:14;;;;;;;13.60;2.13;;;21.00;52.70;;;;;;5062682;28;20068;-61
2022/02/17 07:45:41;;;;;;;7.70;1.70;;;21.10;52.80;;;;;;5064284;28;20036;-61
2022/02/17 07:48:10;;;;;;;12.15;1.60;;;21.10;52.70;;;;;;5064576;28;20044;-60
2022/02/17 07:50:56;;;;;;;12.55;1.33;;;21.10;52.60;;;;;;5063850;28;20586;-60
2022/02/17 07:53:23;;;;;;;27.52;2.17;;;21.10;52.70;;;;;;5062695;28;20139;-51
2022/02/17 07:55:50;;;;;;;15.32;3.83;;;21.10;53.60;;;;;;5061576;28;20043;-56
2022/02/17 07:58:18;;;;;;;21.67;3.60;;;21.20;54.80;;;;;;5063086;28;20829;-56
2022/02/17 08:00:45;;;;;;;24.08;3.83;;;21.20;55.90;;;;;;5062462;28;20062;-56
2022/02/17 08:03:33;;;;;;;18.42;3.33;;;21.20;57.80;;;;;;5065210;28;20052;-53
2022/02/17 08:06:19;;;;;;;20.65;3.33;;;21.20;59.00;;;;;;5066378;28;20066;-55
2022/02/17 08:08:48;;;;;;;21.75;3.03;;;21.20;59.40;;;;;;5065087;28;20051;-57
2022/02/17 08:11:16;;;;;;;13.05;3.13;;;21.20;59.70;;;;;;5053590;28;20547;-55
2022/02/17 08:13:43;;;;;;;20.67;3.53;;;21.20;59.90;;;;;;5071223;28;20123;-56
2022/02/17 08:16:11;;;;;;;19.98;3.00;;;21.20;59.90;;;;;;5071494;28;20519;-57
2022/02/17 08:18:39;;;;;;;13.20;2.72;;;21.30;60.00;;;;;;5072381;28;20046;-54
2022/02/17 08:21:08;;;;;;;16.70;2.67;;;21.30;59.80;;;;;;5072978;28;20051;-52
2022/02/17 08:23:37;;;;;;;14.68;2.05;;;21.30;60.20;;;;;;5071776;28;20094;-57
2022/02/17 08:26:04;;;;;;;16.33;2.55;;;21.30;59.50;;;;;;5071757;28;20040;-56
2022/02/17 08:28:31;;;;;;;18.63;2.28;;;21.30;59.40;;;;;;5071564;28;20037;-57
2022/02/17 08:30:58;;;;;;;13.77;2.67;;;21.30;59.10;;;;;;5071148;28;20037;-57
2022/02/17 08:33:46;;;;;;;11.70;2.35;;;21.30;59.00;;;;;;5071581;28;20474;-56
2022/02/17 08:36:37;;;;;;;14.25;2.58;;;21.40;58.90;;;;;;5071952;28;20055;-54
2022/02/17 08:39:06;;;;;;;13.32;2.20;;;21.30;58.80;;;;;;5055089;28;20220;-57
2022/02/17 08:41:33;;;;;;;15.40;3.25;;;21.40;58.60;;;;;;5071228;28;20044;-55
2022/02/17 08:44:00;;;;;;;16.10;2.08;;;21.40;58.50;;;;;;5071277;28;20436;-55
2022/02/17 08:46:27;;;;;;;16.30;1.60;;;21.40;58.40;;;;;;5071458;28;20029;-56
2022/02/17 08:48:56;;;;;;;7.78;2.70;;;21.40;58.40;;;;;;5071071;28;20446;-55
2022/02/17 08:51:25;;;;;;;11.27;2.17;;;21.50;58.40;;;;;;5070027;28;20534;-56
2022/02/17 08:53:53;;;;;;;12.00;2.40;;;21.50;58.20;;;;;;5071126;28;20435;-54
2022/02/17 08:56:20;;;;;;;11.05;3.03;;;21.50;58.10;;;;;;5071039;28;20051;-57
2022/02/17 08:58:47;;;;;;;18.75;2.70;;;21.50;57.90;;;;;;5070844;28;20047;-55
2022/02/17 09:01:14;;;;;;;11.50;2.30;;;21.50;57.80;;;;;;5070893;28;20044;-57
2022/02/17 09:03:41;;;;;;;9.60;2.28;;;21.60;57.70;;;;;;5071664;28;20386;-55
2022/02/17 09:06:10;;;;;;;8.50;2.33;;;21.60;57.50;;;;;;5070970;28;20048;-57
2022/02/17 09:08:37;;;;;;;11.48;1.98;;;21.60;57.30;;;;;;5068530;28;20063;-57
2022/02/17 09:11:04;;;;;;;9.30;2.08;;;21.70;57.30;;;;;;5070758;28;20531;-57
2022/02/17 09:13:32;;;;;;;11.02;2.17;;;21.60;57.00;;;;;;5070584;28;20101;-55
2022/02/17 09:15:59;;;;;;;8.60;2.08;;;21.70;56.90;;;;;;5070983;28;20041;-58
2022/02/17 09:18:28;;;;;;;14.45;2.78;;;21.70;56.70;;;;;;5072482;28;20048;-58
2022/02/17 09:20:55;;;;;;;10.45;2.22;;;21.70;56.50;;;;;;5070185;28;20037;-58
2022/02/17 09:23:24;;;;;;;12.23;1.50;;;21.70;56.30;;;;;;5068034;28;20120;-56
2022/02/17 09:25:51;;;;;;;10.75;1.77;;;21.70;56.20;;;;;;5067770;28;20044;-55
2022/02/17 09:28:18;;;;;;;14.02;1.90;;;21.70;56.10;;;;;;5067207;28;20163;-56
2022/02/17 09:30:45;;;;;;;12.30;1.83;;;21.70;55.90;;;;;;5067737;28;20040;-57
2022/02/17 09:33:13;;;;;;;17.92;3.20;;;21.70;55.80;;;;;;5069528;28;20060;-55
2022/02/17 09:35:42;;;;;;;8.07;1.60;;;21.80;55.70;;;;;;5065440;28;20414;-60
2022/02/17 09:38:13;;;;;;;10.48;1.85;;;21.80;55.60;;;;;;5067793;28;20049;-55
2022/02/17 09:40:42;;;;;;;8.30;1.92;;;21.80;55.50;;;;;;5049472;28;20537;-52
2022/02/17 09:43:10;;;;;;;11.13;3.08;;;21.80;55.30;;;;;;5067287;28;20401;-56
2022/02/17 09:45:44;;;;;;;9.30;2.45;;;21.80;55.20;;;;;;5067597;28;20082;-57
2022/02/17 09:48:11;;;;;;;14.18;3.08;;;21.80;55.40;;;;;;5067110;28;20059;-54
2022/02/17 09:50:38;;;;;;;12.15;2.22;;;21.80;55.00;;;;;;5066146;28;20041;-57
2022/02/17 09:53:06;;;;;;;11.05;1.80;;;21.80;54.80;;;;;;5064826;28;20067;-56
2022/02/17 09:55:33;;;;;;;10.75;2.40;;;21.80;54.70;;;;;;5066844;28;20405;-58
2022/02/17 09:58:01;;;;;;;13.52;3.08;;;21.80;54.60;;;;;;5066457;28;20036;-56
2022/02/17 10:00:29;;;;;;;7.15;1.17;;;21.80;54.50;;;;;;5068041;28;20048;-59
2022/02/17 10:03:24;;;;;;;13.25;2.78;;;21.80;54.40;;;;;;5067493;28;20053;-55
2022/02/17 10:06:07;;;;;;;11.88;2.45;;;21.80;54.20;;;;;;5067404;28;20822;-57
2022/02/17 10:08:35;;;;;;;13.90;2.78;;;21.90;54.30;;;;;;5066632;28;20118;-56
2022/02/17 10:11:02;;;;;;;11.30;2.00;;;21.90;54.10;;;;;;5066549;28;20041;-58
2022/02/17 10:13:31;;;;;;;13.75;2.92;;;21.90;53.90;;;;;;5066650;28;20048;-56
2022/02/17 10:15:59;;;;;;;11.35;3.35;;;21.90;53.70;;;;;;5064762;28;20036;-55
2022/02/17 10:18:30;;;;;;;8.02;1.52;;;22.00;53.50;;;;;;5065023;28;21189;-56
2022/02/17 10:21:03;;;;;;;14.93;1.80;;;22.00;53.40;;;;;;5067550;28;20051;-58
2022/02/17 10:23:32;;;;;;;11.05;1.42;;;22.00;53.20;;;;;;5048936;28;20068;-57
2022/02/17 10:26:02;;;;;;;11.05;2.90;;;22.10;53.10;;;;;;5066432;28;20742;-58
2022/02/17 10:28:34;;;;;;;10.80;1.70;;;22.10;52.90;;;;;;5066546;28;20494;-56
2022/02/17 10:31:02;;;;;;;7.00;2.17;;;22.20;52.80;;;;;;5064422;28;20115;-53
2022/02/17 10:33:44;;;;;;;12.00;1.90;;;22.20;52.60;;;;;;5066142;28;20056;-57
2022/02/17 10:36:12;;;;;;;12.90;2.42;;;22.20;52.30;;;;;;5066621;28;20051;-56
2022/02/17 10:38:39;;;;;;;11.50;1.80;;;22.20;52.20;;;;;;5064504;28;20040;-57
2022/02/17 10:41:10;;;;;;;11.07;2.25;;;22.30;52.10;;;;;;5060281;28;20036;-57
2022/02/17 10:43:39;;;;;;;12.25;2.03;;;22.30;51.80;;;;;;5066134;28;20122;-56
2022/02/17 10:46:09;;;;;;;11.13;2.13;;;22.30;51.70;;;;;;5060096;28;20504;-57
2022/02/17 10:48:37;;;;;;;11.60;3.13;;;22.40;51.50;;;;;;5063770;28;20094;-55
2022/02/17 10:51:07;;;;;;;7.80;1.85;;;22.40;51.40;;;;;;5064005;28;20079;-56
2022/02/17 10:53:37;;;;;;;12.60;1.27;;;22.40;51.10;;;;;;5066320;28;20048;-54
2022/02/17 10:56:05;;;;;;;12.73;1.88;;;22.50;51.10;;;;;;5066410;28;20048;-58
2022/02/17 10:58:36;;;;;;;14.30;2.42;;;22.50;50.90;;;;;;5065978;28;20119;-55
2022/02/17 11:01:06;;;;;;;8.93;1.65;;;22.50;51.40;;;;;;5066367;28;20661;-56
2022/02/17 11:03:36;;;;;;;12.27;1.80;;;22.50;51.20;;;;;;5049254;28;20075;-52
2022/02/17 11:06:04;;;;;;;8.85;1.45;;;22.40;50.50;;;;;;5067704;28;20139;-50
2022/02/17 11:08:35;;;;;;;8.63;1.98;;;22.50;50.50;;;;;;5066206;28;20067;-52
2022/02/17 11:11:03;;;;;;;8.38;1.60;;;22.50;50.30;;;;;;5065454;28;20040;-50
2022/02/17 11:13:33;;;;;;;8.68;2.25;;;22.50;50.20;;;;;;5065840;28;20090;-54
2022/02/17 11:16:03;;;;;;;8.68;2.05;;;22.50;50.10;;;;;;5061706;28;20417;-55
2022/02/17 11:18:32;;;;;;;13.48;1.63;;;22.60;50.00;;;;;;5066908;28;20041;-53
2022/02/17 11:21:01;;;;;;;16.40;2.30;;;22.60;49.80;;;;;;5066754;28;20047;-55
2022/02/17 11:23:32;;;;;;;5.50;1.33;;;22.60;49.60;;;;;;5064765;28;20080;-54
2022/02/17 11:26:01;;;;;;;11.45;1.58;;;22.60;49.40;;;;;;5065790;28;20115;-54
2022/02/17 11:28:34;;;;;;;7.50;1.40;;;22.60;49.20;;;;;;5065659;28;20036;-56
2022/02/17 11:31:05;;;;;;;7.57;1.33;;;22.70;49.20;;;;;;5063645;28;20059;-53
2022/02/17 11:33:36;;;;;;;9.30;1.92;;;22.70;49.10;;;;;;5066076;28;20059;-54
2022/02/17 11:36:32;;;;;;;8.80;1.65;;;22.70;49.00;;;;;;5066376;28;20580;-56
2022/02/17 11:39:06;;;;;;;5.43;1.70;;;22.80;48.90;;;;;;5065839;28;20413;-55
2022/02/17 11:41:36;;;;;;;8.88;1.55;;;22.80;48.90;;;;;;5065597;28;20046;-57
2022/02/17 11:44:16;;;;;;;10.57;2.65;;;22.80;48.80;;;;;;5064803;28;20079;-51
2022/02/17 11:46:50;;;;;;;6.38;1.80;;;22.90;48.70;;;;;;5066107;28;20040;-56
2022/02/17 11:49:44;;;;;;;10.27;1.98;;;22.90;48.60;;;;;;5065459;28;20079;-56
2022/02/17 11:52:13;;;;;;;9.90;2.05;;;22.90;48.40;;;;;;5056226;28;20048;-56
2022/02/17 11:54:40;;;;;;;10.00;1.10;;;22.90;48.30;;;;;;5065808;28;20037;-54
2022/02/17 11:57:32;;;;;;;9.63;0.93;;;22.90;48.30;;;;;;5066750;28;20957;-56
2022/02/17 12:00:31;;;;;;;10.30;2.33;;;23.00;48.10;;;;;;5066612;28;20127;-53
2022/02/17 12:03:00;;;;;;;6.63;0.60;;;23.00;48.00;;;;;;5066151;28;20052;-56
2022/02/17 12:05:29;;;;;;;5.57;1.02;;;23.00;47.90;;;;;;5065543;28;20090;-57
2022/02/17 12:08:19;;;;;;;8.15;1.75;;;23.10;47.80;;;;;;5065658;28;20506;-57
2022/02/17 12:10:47;;;;;;;7.82;1.23;;;23.10;47.70;;;;;;5065081;28;20083;-57
2022/02/17 12:13:25;;;;;;;7.07;1.70;;;23.10;47.60;;;;;;5065513;28;20045;-56
2022/02/17 12:15:53;;;;;;;7.30;0.95;;;23.20;47.50;;;;;;5064969;28;20115;-57
2022/02/17 12:18:20;;;;;;;8.73;1.90;;;23.20;47.50;;;;;;5067080;28;20440;-57
2022/02/17 12:20:49;;;;;;;8.63;1.08;;;23.30;47.40;;;;;;5064962;28;20404;-54
2022/02/17 12:23:19;;;;;;;7.57;1.08;;;23.30;47.20;;;;;;5065316;28;20563;-56
2022/02/17 12:25:47;;;;;;;6.53;1.05;;;23.40;47.20;;;;;;5064055;28;20056;-55
2022/02/17 12:28:17;;;;;;;11.30;1.95;;;23.40;47.00;;;;;;5065301;28;20095;-58
2022/02/17 12:30:46;;;;;;;12.23;2.65;;;23.40;46.90;;;;;;5065115;28;20087;-57
2022/02/17 12:33:16;;;;;;;3.97;0.60;;;23.50;46.90;;;;;;5066986;28;20045;-52
2022/02/17 12:35:51;;;;;;;11.18;1.58;;;23.50;46.80;;;;;;5064908;28;20040;-57
2022/02/17 12:38:22;;;;;;;6.85;0.93;;;23.60;46.70;;;;;;5064918;28;20139;-54
2022/02/17 12:40:50;;;;;;;8.27;0.90;;;23.60;46.70;;;;;;5065220;28;20048;-52
2022/02/17 12:43:28;;;;;;;10.65;1.08;;;23.60;46.50;;;;;;5064969;28;20044;-56
2022/02/17 12:45:57;;;;;;;5.18;0.80;;;23.60;46.40;;;;;;5065448;28;20137;-55
2022/02/17 12:48:28;;;;;;;5.22;1.38;;;23.70;46.40;;;;;;5066781;28;20078;-56
2022/02/17 12:50:57;;;;;;;6.88;1.73;;;23.70;46.30;;;;;;5061844;28;20045;-55
2022/02/17 12:53:24;;;;;;;5.28;1.30;;;23.80;46.30;;;;;;5063743;28;20033;-55
2022/02/17 12:55:53;;;;;;;7.47;1.23;;;23.80;46.20;;;;;;5065391;28;20040;-57
2022/02/17 12:58:29;;;;;;;9.00;0.75;;;23.80;46.10;;;;;;5068772;28;20496;-59
2022/02/17 13:00:56;;;;;;;;;;;23.90;46.00;;;;;;5069362;28;20628;-55
2022/02/17 13:03:37;;;;;;;4.13;0.90;;;23.80;46.00;;;;;;5070215;28;19966;-54
2022/02/17 13:06:21;;;;;;;5.65;0.95;;;23.90;46.00;;;;;;5068892;28;20044;-56